createdAt,value
2023-03-27T00:00:46.733Z,1.20
2023-03-27T00:03:35.552Z,1.08
2023-03-27T00:06:25.792Z,1.48
2023-03-27T00:09:13.606Z,1.20
2023-03-27T00:12:03.105Z,1.30
2023-03-27T00:14:50.838Z,1.45
2023-03-27T00:17:39.157Z,1.27
2023-03-27T00:20:27.613Z,1.40
2023-03-27T00:23:16.989Z,1.20
2023-03-27T00:26:05.426Z,1.48
2023-03-27T00:28:54.790Z,1.35
2023-03-27T00:31:42.931Z,1.40
2023-03-27T00:34:31.340Z,1.20
2023-03-27T00:37:19.164Z,1.25
2023-03-27T00:40:13.540Z,1.30
2023-03-27T00:43:01.236Z,1.50
2023-03-27T00:45:52.057Z,1.10
2023-03-27T00:48:40.277Z,1.20
2023-03-27T00:51:29.882Z,1.20
2023-03-27T00:54:26.333Z,1.02
2023-03-27T00:57:20.088Z,1.00
2023-03-27T01:00:13.447Z,1.20
2023-03-27T01:03:06.194Z,0.90
2023-03-27T01:05:55.635Z,0.80
2023-03-27T01:08:45.496Z,0.80
2023-03-27T01:11:46.087Z,0.80
2023-03-27T01:14:44.661Z,0.80
2023-03-27T01:17:44.484Z,0.80
2023-03-27T01:21:22.511Z,0.73
2023-03-27T01:24:58.253Z,0.80
2023-03-27T01:28:08.440Z,0.52
2023-03-27T01:31:10.072Z,0.68
2023-03-27T01:34:25.440Z,0.70
2023-03-27T01:37:47.826Z,0.70
2023-03-27T01:40:42.310Z,0.80
2023-03-27T01:43:37.536Z,0.70
2023-03-27T01:46:34.026Z,0.60
2023-03-27T01:49:26.293Z,0.60
2023-03-27T01:52:19.994Z,0.80
2023-03-27T01:55:13.569Z,0.80
2023-03-27T01:58:08.080Z,0.80
2023-03-27T02:01:01.277Z,0.70
2023-03-27T02:03:52.661Z,0.70
2023-03-27T02:06:45.947Z,0.70
2023-03-27T02:09:39.255Z,0.77
2023-03-27T02:12:32.001Z,0.80
2023-03-27T02:15:25.284Z,0.70
2023-03-27T02:18:20.549Z,0.73
2023-03-27T02:21:09.170Z,0.70
2023-03-27T02:23:57.174Z,0.60
2023-03-27T02:26:45.704Z,0.70
2023-03-27T02:29:47.597Z,0.70
2023-03-27T02:32:45.901Z,0.60
2023-03-27T02:35:42.161Z,0.60
2023-03-27T02:38:35.222Z,0.60
2023-03-27T02:44:22.932Z,0.68
2023-03-27T02:47:16.594Z,0.57
2023-03-27T02:50:10.796Z,0.70
2023-03-27T02:53:01.683Z,0.60
2023-03-27T02:55:54.291Z,0.80
2023-03-27T02:58:49.966Z,0.70
2023-03-27T03:01:40.368Z,0.77
2023-03-27T03:04:32.100Z,0.90
2023-03-27T03:07:22.714Z,0.80
2023-03-27T03:10:12.582Z,0.88
2023-03-27T03:13:00.639Z,0.80
2023-03-27T03:15:50.468Z,0.90
2023-03-27T03:18:38.646Z,0.90
2023-03-27T03:21:26.838Z,0.90
2023-03-27T03:24:17.564Z,0.95
2023-03-27T03:27:05.736Z,0.90
2023-03-27T03:29:56.787Z,1.35
2023-03-27T03:32:44.610Z,1.83
2023-03-27T03:35:34.776Z,1.73
2023-03-27T03:38:25.120Z,1.60
2023-03-27T03:41:14.535Z,1.77
2023-03-27T03:44:02.512Z,1.80
2023-03-27T03:46:50.284Z,1.80
2023-03-27T03:49:38.386Z,2.03
2023-03-27T03:52:27.680Z,1.92
2023-03-27T03:55:15.835Z,2.22
2023-03-27T03:58:05.456Z,2.13
2023-03-27T04:00:54.899Z,2.60
2023-03-27T04:03:44.001Z,3.00
2023-03-27T04:06:32.489Z,2.42
2023-03-27T04:09:20.264Z,2.47
2023-03-27T04:12:08.616Z,2.50
2023-03-27T04:14:57.798Z,2.92
2023-03-27T04:17:48.376Z,2.97
2023-03-27T04:20:36.969Z,3.10
2023-03-27T04:23:30.369Z,2.63
2023-03-27T04:26:18.516Z,2.90
2023-03-27T04:29:10.300Z,2.70
2023-03-27T04:32:00.542Z,3.03
2023-03-27T04:34:50.387Z,2.42
2023-03-27T04:37:43.029Z,2.63
2023-03-27T04:40:31.204Z,2.78
2023-03-27T04:43:19.057Z,3.35
2023-03-27T04:46:07.427Z,2.67
2023-03-27T04:48:56.473Z,2.85
2023-03-27T04:51:44.400Z,2.90
2023-03-27T04:54:32.201Z,2.72
2023-03-27T04:57:22.107Z,2.70
2023-03-27T05:00:16.445Z,2.95
2023-03-27T05:03:04.826Z,2.88
2023-03-27T05:05:54.764Z,2.80
2023-03-27T05:08:42.807Z,2.95
2023-03-27T05:11:30.670Z,3.05
2023-03-27T05:14:18.994Z,3.05
2023-03-27T05:17:07.198Z,2.72
2023-03-27T05:19:54.971Z,3.00
2023-03-27T05:22:44.686Z,2.95
2023-03-27T05:25:33.621Z,3.50
2023-03-27T05:28:21.327Z,3.13
2023-03-27T05:31:10.650Z,3.20
2023-03-27T05:33:58.792Z,2.90
2023-03-27T05:36:47.023Z,2.88
2023-03-27T05:39:36.838Z,2.70
2023-03-27T05:42:24.974Z,2.70
2023-03-27T05:45:14.010Z,3.10
2023-03-27T05:48:03.295Z,2.63
2023-03-27T05:50:51.108Z,2.47
2023-03-27T05:53:39.586Z,2.58
2023-03-27T05:56:28.748Z,2.80
2023-03-27T05:59:17.156Z,3.35
2023-03-27T06:02:05.755Z,3.08
2023-03-27T06:04:53.770Z,3.00
2023-03-27T06:07:43.301Z,3.20
2023-03-27T06:10:33.767Z,2.90
2023-03-27T06:13:26.226Z,2.90
2023-03-27T06:16:15.013Z,3.37
2023-03-27T06:19:03.161Z,3.25
2023-03-27T06:21:51.526Z,3.17
2023-03-27T06:24:39.206Z,2.60
2023-03-27T06:27:28.307Z,3.50
2023-03-27T06:30:19.432Z,3.15
2023-03-27T06:33:08.735Z,3.00
2023-03-27T06:36:00.542Z,3.40
2023-03-27T06:38:48.900Z,2.97
2023-03-27T06:41:36.946Z,3.13
2023-03-27T06:44:24.865Z,2.70
2023-03-27T06:47:14.999Z,2.78
2023-03-27T06:50:03.021Z,2.67
2023-03-27T06:52:51.019Z,2.40
2023-03-27T06:55:39.219Z,2.75
2023-03-27T06:58:27.284Z,2.70
2023-03-27T07:01:15.076Z,2.78
2023-03-27T07:04:04.622Z,2.58
2023-03-27T07:06:52.863Z,2.50
2023-03-27T07:09:40.848Z,2.42
2023-03-27T07:12:29.104Z,2.80
2023-03-27T07:15:17.800Z,2.72
2023-03-27T07:18:09.232Z,2.65
2023-03-27T07:20:58.722Z,2.70
2023-03-27T07:23:46.626Z,2.92
2023-03-27T07:26:35.443Z,2.70
2023-03-27T07:29:39.623Z,2.97
2023-03-27T07:32:36.789Z,2.40
2023-03-27T07:35:25.893Z,2.40
2023-03-27T07:38:16.869Z,2.45
2023-03-27T07:41:06.850Z,2.05
2023-03-27T07:43:56.385Z,1.90
2023-03-27T07:46:44.480Z,2.00
2023-03-27T07:49:40.083Z,1.80
2023-03-27T07:52:29.392Z,1.67
2023-03-27T07:55:19.657Z,1.80
2023-03-27T07:58:07.807Z,1.60
2023-03-27T08:01:02.132Z,1.50
2023-03-27T08:03:50.690Z,1.60
2023-03-27T08:06:38.823Z,1.42
2023-03-27T08:09:27.137Z,1.55
2023-03-27T08:12:16.901Z,1.40
2023-03-27T08:15:05.774Z,2.00
2023-03-27T08:17:55.232Z,1.38
2023-03-27T08:20:43.919Z,1.40
2023-03-27T08:23:32.703Z,1.50
2023-03-27T08:26:20.876Z,1.45
2023-03-27T08:29:10.403Z,1.40
2023-03-27T08:31:58.758Z,1.45
2023-03-27T08:34:46.638Z,1.30
2023-03-27T08:37:34.890Z,1.40
2023-03-27T08:40:26.840Z,1.40
2023-03-27T08:43:19.762Z,1.90
2023-03-27T08:46:17.344Z,1.50
2023-03-27T08:49:09.408Z,1.70
2023-03-27T08:51:59.897Z,2.10
2023-03-27T08:54:53.497Z,2.17
2023-03-27T08:57:41.490Z,2.00
2023-03-27T09:00:35.364Z,1.55
2023-03-27T09:03:29.733Z,1.52
2023-03-27T09:06:29.062Z,1.85
2023-03-27T09:09:28.643Z,1.30
2023-03-27T09:12:31.119Z,2.20
2023-03-27T09:15:26.168Z,1.67
2023-03-27T09:18:20.367Z,1.55
2023-03-27T09:21:14.616Z,1.77
2023-03-27T09:24:08.027Z,1.73
2023-03-27T09:30:06.110Z,1.73
2023-03-27T09:32:58.223Z,1.85
2023-03-27T09:35:46.391Z,1.40
2023-03-27T09:38:38.662Z,1.60
2023-03-27T09:41:32.257Z,1.30
2023-03-27T09:44:25.473Z,1.50
2023-03-27T09:47:16.458Z,1.90
2023-03-27T09:50:25.635Z,1.70
2023-03-27T09:53:18.153Z,2.58
2023-03-27T09:56:14.392Z,2.15
2023-03-27T09:59:09.176Z,1.70
2023-03-27T10:01:59.544Z,2.40
2023-03-27T10:05:00.721Z,5.32
2023-03-27T10:07:48.684Z,1.70
2023-03-27T10:10:42.401Z,1.50
2023-03-27T10:13:31.626Z,1.52
2023-03-27T10:16:21.629Z,2.30
2023-03-27T10:19:23.593Z,1.70
2023-03-27T10:22:21.633Z,1.42
2023-03-27T10:25:19.153Z,1.25
2023-03-27T10:28:17.691Z,1.80
2023-03-27T10:31:11.062Z,2.90
2023-03-27T10:34:01.928Z,2.58
2023-03-27T10:36:50.742Z,2.55
2023-03-27T10:39:38.793Z,1.85
2023-03-27T10:42:29.043Z,2.50
2023-03-27T10:45:19.739Z,3.05
2023-03-27T10:48:09.716Z,2.75
2023-03-27T10:51:03.269Z,1.85
2023-03-27T10:53:56.757Z,2.05
2023-03-27T10:56:59.420Z,2.35
2023-03-27T10:59:53.397Z,1.90
2023-03-27T11:02:49.835Z,1.15
2023-03-27T11:05:43.150Z,1.70
2023-03-27T11:08:36.170Z,1.35
2023-03-27T11:14:22.282Z,1.65
2023-03-27T11:17:14.106Z,1.70
2023-03-27T11:20:08.484Z,1.10
2023-03-27T11:23:05.676Z,1.13
2023-03-27T11:25:55.996Z,2.05
2023-03-27T11:28:47.666Z,1.92
2023-03-27T11:31:40.591Z,2.58
2023-03-27T11:37:30.598Z,2.45
2023-03-27T11:40:24.188Z,1.98
2023-03-27T11:43:13.741Z,1.67
2023-03-27T11:46:16.819Z,1.58
2023-03-27T11:49:27.271Z,1.60
2023-03-27T11:52:28.360Z,1.65
2023-03-27T11:55:32.489Z,2.30
2023-03-27T11:58:30.676Z,2.28
2023-03-27T12:01:27.064Z,2.03
2023-03-27T12:04:36.649Z,2.65
2023-03-27T12:07:37.141Z,2.17
2023-03-27T12:10:35.876Z,2.33
2023-03-27T12:14:01.849Z,1.92
2023-03-27T12:17:13.196Z,1.80
2023-03-27T12:20:51.839Z,1.65
2023-03-27T12:24:05.168Z,2.10
2023-03-27T12:27:21.887Z,2.17
2023-03-27T12:30:24.456Z,2.63
2023-03-27T12:33:27.344Z,1.88
2023-03-27T12:36:20.742Z,2.50
2023-03-27T12:39:19.925Z,2.47
2023-03-27T12:42:16.578Z,2.65
2023-03-27T12:45:15.417Z,2.63
2023-03-27T12:48:17.811Z,1.90
2023-03-27T12:51:15.294Z,4.70
2023-03-27T12:54:15.768Z,3.20
2023-03-27T12:57:06.619Z,1.63
2023-03-27T12:59:59.903Z,1.52
2023-03-27T13:03:25.211Z,1.40
2023-03-27T13:06:31.180Z,1.10
2023-03-27T13:09:44.973Z,1.00
2023-03-27T13:12:54.138Z,1.63
2023-03-27T13:16:17.088Z,1.50
2023-03-27T13:19:32.764Z,5.32
2023-03-27T13:22:37.077Z,2.08
2023-03-27T13:25:54.937Z,2.22
2023-03-27T13:28:48.556Z,2.65
2023-03-27T13:32:04.326Z,3.20
2023-03-27T13:35:05.068Z,2.70
2023-03-27T13:38:02.523Z,3.47
2023-03-27T13:40:51.068Z,3.70
2023-03-27T13:43:39.575Z,3.88
2023-03-27T13:46:30.037Z,3.13
2023-03-27T13:49:34.892Z,2.72
2023-03-27T13:52:44.213Z,2.72
2023-03-27T13:55:57.527Z,2.17
2023-03-27T13:59:28.106Z,1.90
2023-03-27T14:02:54.937Z,1.48
2023-03-27T14:06:04.032Z,1.63
2023-03-27T14:09:06.084Z,1.65
2023-03-27T14:12:06.324Z,1.88
2023-03-27T14:15:27.106Z,2.05
2023-03-27T14:18:38.135Z,2.10
2023-03-27T14:21:38.568Z,1.70
2023-03-27T14:24:34.617Z,2.00
2023-03-27T14:27:24.475Z,1.60
2023-03-27T14:30:19.262Z,1.95
2023-03-27T14:33:11.022Z,1.60
2023-03-27T14:36:03.765Z,2.42
2023-03-27T14:41:47.435Z,2.70
2023-03-27T14:44:36.259Z,2.70
2023-03-27T14:47:24.601Z,1.88
2023-03-27T14:50:16.042Z,2.00
2023-03-27T14:53:09.952Z,1.52
2023-03-27T14:56:05.323Z,1.40
2023-03-27T14:58:56.367Z,1.52
2023-03-27T15:01:48.459Z,1.70
2023-03-27T15:04:40.100Z,1.57
2023-03-27T15:07:30.876Z,1.60
2023-03-27T15:10:26.137Z,1.77
2023-03-27T15:13:16.012Z,2.80
2023-03-27T15:16:06.741Z,3.58
2023-03-27T15:19:09.937Z,2.20
2023-03-27T15:22:02.895Z,1.60
2023-03-27T15:27:43.645Z,1.50
2023-03-27T15:30:37.984Z,3.50
2023-03-27T15:33:34.023Z,3.00
2023-03-27T15:36:28.643Z,2.88
2023-03-27T15:39:22.622Z,2.95
2023-03-27T15:42:14.962Z,2.78
2023-03-27T15:45:05.354Z,3.47
2023-03-27T15:48:05.857Z,2.55
2023-03-27T15:50:58.818Z,2.55
2023-03-27T15:53:48.326Z,2.92
2023-03-27T15:56:41.254Z,1.77
2023-03-27T16:02:19.476Z,2.08
2023-03-27T16:09:27.064Z,1.90
2023-03-27T16:12:18.190Z,1.40
2023-03-27T16:15:08.397Z,2.60
2023-03-27T16:17:58.716Z,2.58
2023-03-27T16:20:47.281Z,2.97
2023-03-27T16:23:35.366Z,2.60
2023-03-27T16:26:27.242Z,2.30
2023-03-27T16:29:17.056Z,1.50
2023-03-27T16:32:05.212Z,1.67
2023-03-27T16:34:53.349Z,1.75
2023-03-27T16:37:41.218Z,2.17
2023-03-27T16:40:30.969Z,2.25
2023-03-27T16:43:20.437Z,3.85
2023-03-27T16:46:11.958Z,6.90
2023-03-27T16:49:00.338Z,6.78
2023-03-27T16:51:48.100Z,4.80
2023-03-27T16:54:36.601Z,3.42
2023-03-27T16:57:25.647Z,3.53
2023-03-27T17:00:17.202Z,2.67
2023-03-27T17:03:05.201Z,2.17
2023-03-27T17:05:53.285Z,2.00
2023-03-27T17:08:41.146Z,1.70
2023-03-27T17:11:29.308Z,2.25
2023-03-27T17:14:17.303Z,2.28
2023-03-27T17:17:06.798Z,2.28
2023-03-27T17:19:54.602Z,2.40
2023-03-27T17:22:42.283Z,1.90
2023-03-27T17:25:30.372Z,1.77
2023-03-27T17:28:18.739Z,2.30
2023-03-27T17:31:07.328Z,2.10
2023-03-27T17:33:56.681Z,2.20
2023-03-27T17:36:49.772Z,1.60
2023-03-27T17:39:42.043Z,1.70
2023-03-27T17:42:29.822Z,1.67
2023-03-27T17:45:17.743Z,2.53
2023-03-27T17:48:06.912Z,3.05
2023-03-27T17:51:07.973Z,2.80
2023-03-27T17:53:56.899Z,2.67
2023-03-27T17:56:45.057Z,2.72
2023-03-27T17:59:33.020Z,2.72
2023-03-27T18:02:22.435Z,2.72
2023-03-27T18:05:10.692Z,2.20
2023-03-27T18:08:00.290Z,2.50
2023-03-27T18:10:50.390Z,2.10
2023-03-27T18:13:39.044Z,3.65
2023-03-27T18:16:27.504Z,2.95
2023-03-27T18:19:15.524Z,1.98
2023-03-27T18:22:03.368Z,2.63
2023-03-27T18:24:52.616Z,2.40
2023-03-27T18:27:41.828Z,1.90
2023-03-27T18:30:32.149Z,1.60
2023-03-27T18:33:20.201Z,1.27
2023-03-27T18:36:10.763Z,1.17
2023-03-27T18:38:58.999Z,1.20
2023-03-27T18:41:48.498Z,1.30
2023-03-27T18:44:38.001Z,1.50
2023-03-27T18:47:25.763Z,1.20
2023-03-27T18:50:15.522Z,1.88
2023-03-27T18:53:03.230Z,1.50
2023-03-27T18:55:52.029Z,1.40
2023-03-27T18:58:42.154Z,1.52
2023-03-27T19:01:34.642Z,1.65
2023-03-27T19:04:22.736Z,1.60
2023-03-27T19:07:10.909Z,1.80
2023-03-27T19:09:58.833Z,1.92
2023-03-27T19:12:46.959Z,1.55
2023-03-27T19:15:37.006Z,1.90
2023-03-27T19:18:29.833Z,1.92
2023-03-27T19:21:17.742Z,1.80
2023-03-27T19:24:06.067Z,1.58
2023-03-27T19:26:54.208Z,1.70
2023-03-27T19:29:42.224Z,1.80
2023-03-27T19:32:31.735Z,1.52
2023-03-27T19:35:20.652Z,1.70
2023-03-27T19:38:08.363Z,1.67
2023-03-27T19:40:56.723Z,1.42
2023-03-27T19:43:44.792Z,1.52
2023-03-27T19:46:32.605Z,1.83
2023-03-27T19:49:22.083Z,1.83
2023-03-27T19:52:10.251Z,1.60
2023-03-27T19:54:58.508Z,1.70
2023-03-27T19:57:46.529Z,1.63
2023-03-27T20:00:35.000Z,1.65
2023-03-27T20:03:24.181Z,1.70
2023-03-27T20:06:18.859Z,1.60
2023-03-27T20:09:07.506Z,1.33
2023-03-27T20:11:56.848Z,1.42
2023-03-27T20:14:53.967Z,1.30
2023-03-27T20:17:50.341Z,1.83
2023-03-27T20:20:39.829Z,1.40
2023-03-27T20:23:31.813Z,1.50
2023-03-27T20:26:19.712Z,1.40
2023-03-27T20:29:08.393Z,1.50
2023-03-27T20:31:56.665Z,1.60
2023-03-27T20:34:46.345Z,1.52
2023-03-27T20:37:34.348Z,1.67
2023-03-27T20:40:23.387Z,1.63
2023-03-27T20:43:11.846Z,1.52
2023-03-27T20:46:00.213Z,1.50
2023-03-27T20:48:54.172Z,1.77
2023-03-27T20:51:45.042Z,1.80
2023-03-27T20:54:33.822Z,1.40
2023-03-27T20:57:23.123Z,1.30
2023-03-27T21:00:12.294Z,1.27
2023-03-27T21:03:00.166Z,1.45
2023-03-27T21:05:48.646Z,1.25
2023-03-27T21:08:36.788Z,1.30
2023-03-27T21:11:24.805Z,1.40
2023-03-27T21:14:14.092Z,1.40
2023-03-27T21:17:02.022Z,1.30
2023-03-27T21:19:50.296Z,1.48
2023-03-27T21:22:38.362Z,1.45
2023-03-27T21:25:26.262Z,1.35
2023-03-27T21:28:14.151Z,1.00
2023-03-27T21:31:07.910Z,1.20
2023-03-27T21:33:55.607Z,1.10
2023-03-27T21:36:43.581Z,1.30
2023-03-27T21:39:31.507Z,1.10
2023-03-27T21:42:21.660Z,1.00
2023-03-27T21:45:10.735Z,1.15
2023-03-27T21:48:00.287Z,1.10
2023-03-27T21:50:48.575Z,1.08
2023-03-27T21:53:36.746Z,1.08
2023-03-27T21:56:24.542Z,1.20
2023-03-27T21:59:12.353Z,0.98
2023-03-27T22:02:00.427Z,1.20
2023-03-27T22:04:49.497Z,0.82
2023-03-27T22:07:37.694Z,1.20
2023-03-27T22:10:25.268Z,1.33
2023-03-27T22:13:13.202Z,1.30
2023-03-27T22:16:01.403Z,1.02
2023-03-27T22:18:49.556Z,1.10
2023-03-27T22:21:38.859Z,1.23
2023-03-27T22:24:27.471Z,1.27
2023-03-27T22:27:15.554Z,1.20
2023-03-27T22:30:03.733Z,1.20
2023-03-27T22:32:51.628Z,1.10
2023-03-27T22:35:39.623Z,1.20
2023-03-27T22:38:31.394Z,1.20
2023-03-27T22:41:19.508Z,1.30
2023-03-27T22:44:07.663Z,1.20
2023-03-27T22:46:55.602Z,1.30
2023-03-27T22:49:43.365Z,1.30
2023-03-27T22:52:31.407Z,1.27
2023-03-27T22:55:20.846Z,1.25
2023-03-27T22:58:08.415Z,1.25
2023-03-27T23:00:56.783Z,1.35
2023-03-27T23:03:44.665Z,1.40
2023-03-27T23:06:32.572Z,1.50
2023-03-27T23:09:20.472Z,1.40
2023-03-27T23:12:09.954Z,1.60
2023-03-27T23:14:57.968Z,1.50
2023-03-27T23:17:45.939Z,1.17
2023-03-27T23:20:33.820Z,1.67
2023-03-27T23:23:21.858Z,1.40
2023-03-27T23:26:10.339Z,2.10
2023-03-27T23:29:00.332Z,1.70
2023-03-27T23:31:48.195Z,2.17
2023-03-27T23:34:36.187Z,2.00
2023-03-27T23:37:24.568Z,2.10
2023-03-27T23:40:12.778Z,1.83
2023-03-27T23:43:00.397Z,1.60
2023-03-27T23:45:49.709Z,1.83
2023-03-27T23:48:38.628Z,1.90
2023-03-27T23:51:26.314Z,1.80
2023-03-27T23:54:14.150Z,1.90
2023-03-27T23:57:02.125Z,1.92
2023-03-27T23:59:50.033Z,2.10
